createdAt,value
2018-05-25T00:00:47.366Z,18.92
2018-05-25T00:03:15.497Z,18.88
2018-05-25T00:05:43.633Z,18.82
2018-05-25T00:08:11.780Z,18.84
2018-05-25T00:10:39.922Z,18.81
2018-05-25T00:13:08.034Z,18.74
2018-05-25T00:15:39.649Z,18.72
2018-05-25T00:18:07.771Z,18.80
2018-05-25T00:20:35.916Z,18.83
2018-05-25T00:23:04.079Z,18.80
2018-05-25T00:25:32.187Z,18.84
2018-05-25T00:28:00.323Z,18.78
2018-05-25T00:30:28.470Z,18.73
2018-05-25T00:32:56.575Z,18.71
2018-05-25T00:35:24.720Z,18.67
2018-05-25T00:37:52.888Z,18.64
2018-05-25T00:40:21.290Z,18.68
2018-05-25T00:42:49.432Z,18.68
2018-05-25T00:45:17.557Z,18.73
2018-05-25T00:47:45.684Z,18.66
2018-05-25T00:50:13.808Z,18.71
2018-05-25T00:52:42.442Z,18.66
2018-05-25T00:55:22.386Z,18.77
2018-05-25T00:57:50.513Z,18.80
2018-05-25T01:00:18.667Z,18.64
2018-05-25T01:02:46.792Z,18.64
2018-05-25T01:05:14.933Z,18.75
2018-05-25T01:07:43.043Z,18.61
2018-05-25T01:10:11.191Z,18.58
2018-05-25T01:12:39.325Z,18.58
2018-05-25T01:15:07.439Z,18.59
2018-05-25T01:17:35.607Z,18.68
2018-05-25T01:20:03.724Z,18.73
2018-05-25T01:22:31.912Z,18.73
2018-05-25T01:25:00.059Z,18.75
2018-05-25T01:27:28.187Z,18.71
2018-05-25T01:29:56.337Z,18.70
2018-05-25T01:32:24.462Z,18.75
2018-05-25T01:34:52.581Z,18.79
2018-05-25T01:37:20.721Z,18.81
2018-05-25T01:39:48.846Z,18.82
2018-05-25T01:42:16.985Z,18.83
2018-05-25T01:44:45.108Z,18.69
2018-05-25T01:47:13.241Z,18.73
2018-05-25T01:49:41.391Z,18.66
2018-05-25T01:52:09.498Z,18.68
2018-05-25T01:54:37.645Z,18.69
2018-05-25T01:57:05.804Z,18.65
2018-05-25T01:59:33.930Z,18.53
2018-05-25T02:02:02.073Z,18.60
2018-05-25T02:04:30.215Z,18.65
2018-05-25T02:06:58.354Z,18.63
2018-05-25T02:09:26.484Z,18.58
2018-05-25T02:11:54.595Z,18.63
2018-05-25T02:14:22.737Z,18.68
2018-05-25T02:16:50.866Z,18.71
2018-05-25T02:19:19.385Z,18.73
2018-05-25T02:21:47.623Z,18.74
2018-05-25T02:24:15.750Z,18.71
2018-05-25T02:26:43.885Z,18.72
2018-05-25T02:29:12.032Z,18.71
2018-05-25T02:31:40.169Z,18.73
2018-05-25T02:34:08.301Z,18.74
2018-05-25T02:36:36.425Z,18.66
2018-05-25T02:39:04.572Z,18.67
2018-05-25T02:41:32.704Z,18.68
2018-05-25T02:44:00.857Z,18.65
2018-05-25T02:46:28.981Z,18.62
2018-05-25T02:48:57.127Z,18.56
2018-05-25T02:51:25.261Z,18.52
2018-05-25T02:53:53.375Z,18.50
2018-05-25T02:56:21.530Z,18.48
2018-05-25T02:58:49.666Z,18.44
2018-05-25T03:01:17.789Z,18.38
2018-05-25T03:03:45.912Z,18.40
2018-05-25T03:06:14.033Z,18.35
2018-05-25T03:08:42.181Z,18.40
2018-05-25T03:11:10.313Z,18.40
2018-05-25T03:13:38.451Z,18.36
2018-05-25T03:16:06.598Z,18.35
2018-05-25T03:18:35.070Z,18.30
2018-05-25T03:21:03.653Z,18.28
2018-05-25T03:23:31.822Z,18.27
2018-05-25T03:25:59.945Z,18.28
2018-05-25T03:28:28.085Z,18.21
2018-05-25T03:30:56.214Z,18.19
2018-05-25T03:33:24.362Z,18.12
2018-05-25T03:35:52.520Z,18.11
2018-05-25T03:38:20.648Z,18.02
2018-05-25T03:40:48.782Z,18.03
2018-05-25T03:43:16.897Z,18.05
2018-05-25T03:45:45.048Z,18.05
2018-05-25T03:48:13.177Z,18.05
2018-05-25T03:50:41.306Z,18.04
2018-05-25T03:53:09.443Z,17.99
2018-05-25T03:55:37.574Z,17.98
2018-05-25T03:58:05.735Z,17.94
2018-05-25T04:00:45.773Z,17.94
2018-05-25T04:03:15.072Z,17.96
2018-05-25T04:05:43.209Z,17.94
2018-05-25T04:08:11.351Z,17.93
2018-05-25T04:10:39.495Z,17.93
2018-05-25T04:13:07.610Z,17.90
2018-05-25T04:15:35.894Z,17.90
2018-05-25T04:18:04.066Z,17.93
2018-05-25T04:20:32.250Z,17.95
2018-05-25T04:23:00.403Z,17.88
2018-05-25T04:25:28.525Z,17.90
2018-05-25T04:27:56.671Z,17.90
2018-05-25T04:30:24.831Z,17.90
2018-05-25T04:32:52.977Z,17.90
2018-05-25T04:35:21.093Z,17.84
2018-05-25T04:37:49.229Z,17.85
2018-05-25T04:40:17.369Z,17.90
2018-05-25T04:42:45.495Z,17.86
2018-05-25T04:45:13.690Z,17.86
2018-05-25T04:47:41.835Z,17.91
2018-05-25T04:50:09.957Z,17.90
2018-05-25T04:52:38.074Z,17.91
2018-05-25T04:55:06.227Z,17.94
2018-05-25T04:57:34.390Z,17.97
2018-05-25T05:00:02.516Z,17.96
2018-05-25T05:02:30.639Z,18.03
2018-05-25T05:04:58.816Z,18.04
2018-05-25T05:07:26.901Z,18.04
2018-05-25T05:09:55.023Z,18.08
2018-05-25T05:12:23.154Z,18.09
2018-05-25T05:14:51.351Z,18.36
2018-05-25T05:17:19.428Z,18.61
2018-05-25T05:19:47.556Z,18.61
2018-05-25T05:22:15.703Z,18.62
2018-05-25T05:24:43.824Z,18.61
2018-05-25T05:27:12.136Z,18.64
2018-05-25T05:29:40.261Z,18.71
2018-05-25T05:32:08.382Z,18.73
2018-05-25T05:34:36.518Z,18.74
2018-05-25T05:37:04.645Z,18.77
2018-05-25T05:39:32.778Z,18.71
2018-05-25T05:42:00.909Z,18.75
2018-05-25T05:44:29.052Z,18.72
2018-05-25T05:46:57.180Z,18.66
2018-05-25T05:49:25.302Z,18.74
2018-05-25T05:51:53.440Z,18.88
2018-05-25T05:54:21.562Z,18.99
2018-05-25T05:56:49.693Z,19.07
2018-05-25T05:59:17.842Z,19.11
2018-05-25T06:01:45.996Z,19.01
2018-05-25T06:04:14.140Z,19.05
2018-05-25T06:06:42.243Z,19.12
2018-05-25T06:09:10.391Z,19.20
2018-05-25T06:11:38.510Z,19.26
2018-05-25T06:14:06.651Z,19.30
2018-05-25T06:16:34.779Z,19.32
2018-05-25T06:19:02.925Z,19.30
2018-05-25T06:21:31.015Z,19.32
2018-05-25T06:23:59.153Z,19.29
2018-05-25T06:26:27.271Z,19.36
2018-05-25T06:28:55.438Z,19.41
2018-05-25T06:31:23.553Z,19.46
2018-05-25T06:33:51.682Z,19.55
2018-05-25T06:36:19.824Z,19.64
2018-05-25T06:38:47.927Z,19.66
2018-05-25T06:41:16.112Z,19.64
2018-05-25T06:43:44.247Z,19.66
2018-05-25T06:46:12.354Z,19.74
2018-05-25T06:48:40.493Z,19.80
2018-05-25T06:51:08.635Z,19.90
2018-05-25T06:53:36.763Z,19.93
2018-05-25T06:56:04.897Z,19.97
2018-05-25T06:58:33.044Z,20.01
2018-05-25T07:01:01.181Z,20.03
2018-05-25T07:03:29.300Z,20.03
2018-05-25T07:05:57.669Z,20.05
2018-05-25T07:08:25.801Z,20.13
2018-05-25T07:10:53.920Z,20.24
2018-05-25T07:13:25.543Z,20.27
2018-05-25T07:15:53.661Z,20.17
2018-05-25T07:18:21.787Z,20.18
2018-05-25T07:20:49.909Z,20.27
2018-05-25T07:23:18.091Z,20.32
2018-05-25T07:25:46.277Z,20.40
2018-05-25T07:28:14.416Z,20.36
2018-05-25T07:30:42.552Z,20.38
2018-05-25T07:33:10.666Z,20.41
2018-05-25T07:35:38.891Z,20.48
2018-05-25T07:38:06.990Z,20.54
2018-05-25T07:40:35.134Z,20.53
2018-05-25T07:43:03.300Z,20.56
2018-05-25T07:45:31.425Z,20.60
2018-05-25T07:47:59.542Z,20.62
2018-05-25T07:50:30.153Z,20.61
2018-05-25T07:52:58.296Z,20.57
2018-05-25T07:55:26.435Z,20.61
2018-05-25T07:57:54.559Z,20.60
2018-05-25T08:00:22.695Z,20.59
2018-05-25T08:02:50.829Z,20.58
2018-05-25T08:05:18.953Z,20.58
2018-05-25T08:07:47.108Z,20.65
2018-05-25T08:10:15.241Z,20.70
2018-05-25T08:12:43.373Z,20.80
2018-05-25T08:15:11.505Z,20.92
2018-05-25T08:17:39.633Z,20.99
2018-05-25T08:20:07.771Z,21.04
2018-05-25T08:22:35.893Z,21.05
2018-05-25T08:25:04.051Z,21.08
2018-05-25T08:27:32.173Z,21.03
2018-05-25T08:30:00.305Z,21.06
2018-05-25T08:32:30.315Z,21.10
2018-05-25T08:34:58.457Z,21.18
2018-05-25T08:37:26.728Z,21.14
2018-05-25T08:39:54.865Z,21.22
2018-05-25T08:42:23.001Z,21.27
2018-05-25T08:44:51.112Z,21.33
2018-05-25T08:47:19.364Z,21.40
2018-05-25T08:49:47.500Z,21.36
2018-05-25T08:52:15.661Z,21.39
2018-05-25T08:54:43.797Z,21.42
2018-05-25T08:57:11.953Z,21.44
2018-05-25T08:59:40.070Z,21.38
2018-05-25T09:02:08.205Z,21.37
2018-05-25T09:04:36.350Z,21.35
2018-05-25T09:07:04.507Z,21.33
2018-05-25T09:09:32.644Z,21.35
2018-05-25T09:12:00.762Z,21.37
2018-05-25T09:14:28.889Z,21.39
2018-05-25T09:16:57.051Z,21.38
2018-05-25T09:19:25.167Z,21.41
2018-05-25T09:21:53.343Z,21.45
2018-05-25T09:24:21.430Z,21.55
2018-05-25T09:26:49.575Z,21.67
2018-05-25T09:29:17.705Z,21.76
2018-05-25T09:31:45.853Z,21.79
2018-05-25T09:34:13.988Z,21.78
2018-05-25T09:36:42.144Z,21.76
2018-05-25T09:39:10.299Z,21.87
2018-05-25T09:41:38.440Z,21.92
2018-05-25T09:44:06.587Z,21.86
2018-05-25T09:46:34.714Z,21.83
2018-05-25T09:49:02.856Z,21.93
2018-05-25T09:51:30.998Z,22.01
2018-05-25T09:53:59.144Z,22.02
2018-05-25T09:56:27.256Z,22.00
2018-05-25T09:58:55.440Z,22.08
2018-05-25T10:01:23.550Z,22.05
2018-05-25T10:03:51.692Z,22.10
2018-05-25T10:06:19.832Z,22.16
2018-05-25T10:08:47.972Z,22.14
2018-05-25T10:11:16.182Z,22.17
2018-05-25T10:13:44.310Z,22.19
2018-05-25T10:16:12.456Z,22.35
2018-05-25T10:18:40.570Z,22.45
2018-05-25T10:21:09.613Z,22.51
2018-05-25T10:23:37.759Z,22.47
2018-05-25T10:26:05.896Z,22.44
2018-05-25T10:28:34.054Z,22.54
2018-05-25T10:31:02.201Z,22.62
2018-05-25T10:33:30.316Z,22.78
2018-05-25T10:35:58.462Z,22.89
2018-05-25T10:38:26.584Z,22.99
2018-05-25T10:40:54.720Z,23.05
2018-05-25T10:43:22.888Z,23.21
2018-05-25T10:45:51.047Z,23.12
2018-05-25T10:48:19.151Z,22.89
2018-05-25T10:50:47.314Z,22.85
2018-05-25T10:53:15.438Z,22.77
2018-05-25T10:55:43.561Z,22.72
2018-05-25T10:58:11.706Z,22.70
2018-05-25T11:00:39.830Z,22.73
2018-05-25T11:03:07.957Z,22.96
2018-05-25T11:05:36.173Z,23.08
2018-05-25T11:08:04.283Z,23.02
2018-05-25T11:10:32.406Z,22.84
2018-05-25T11:13:00.551Z,22.70
2018-05-25T11:15:29.620Z,22.82
2018-05-25T11:17:57.754Z,23.12
2018-05-25T11:20:25.863Z,23.23
2018-05-25T11:22:53.998Z,23.17
2018-05-25T11:25:22.137Z,23.14
2018-05-25T11:27:50.280Z,23.04
2018-05-25T11:30:18.428Z,23.01
2018-05-25T11:32:46.578Z,23.19
2018-05-25T11:35:14.725Z,23.39
2018-05-25T11:37:42.876Z,23.71
2018-05-25T11:40:11.012Z,23.95
2018-05-25T11:42:39.156Z,23.84
2018-05-25T11:45:07.294Z,23.81
2018-05-25T11:47:35.415Z,23.87
2018-05-25T11:50:03.561Z,23.84
2018-05-25T11:52:32.283Z,23.87
2018-05-25T11:55:00.409Z,23.78
2018-05-25T11:57:28.535Z,23.80
2018-05-25T11:59:56.699Z,23.71
2018-05-25T12:02:24.821Z,23.82
2018-05-25T12:04:52.971Z,23.89
2018-05-25T12:07:21.102Z,23.97
2018-05-25T12:09:49.248Z,24.06
2018-05-25T12:12:17.380Z,24.01
2018-05-25T12:14:45.509Z,24.01
2018-05-25T12:17:13.670Z,24.01
2018-05-25T12:19:41.792Z,24.14
2018-05-25T12:22:09.911Z,24.37
2018-05-25T12:24:38.072Z,24.40
2018-05-25T12:27:06.188Z,24.41
2018-05-25T12:29:34.323Z,24.48
2018-05-25T12:32:02.478Z,24.45
2018-05-25T12:34:30.606Z,24.43
2018-05-25T12:36:58.711Z,24.54
2018-05-25T12:39:26.837Z,24.65
2018-05-25T12:41:54.984Z,24.55
2018-05-25T12:44:23.136Z,24.59
2018-05-25T12:46:51.305Z,24.73
2018-05-25T12:49:19.470Z,24.80
2018-05-25T12:51:47.593Z,24.85
2018-05-25T12:54:15.753Z,24.92
2018-05-25T12:56:43.926Z,24.87
2018-05-25T12:59:12.024Z,24.66
2018-05-25T13:01:40.154Z,24.46
2018-05-25T13:04:08.274Z,24.33
2018-05-25T13:06:36.394Z,24.30
2018-05-25T13:09:04.551Z,24.23
2018-05-25T13:11:32.693Z,24.14
2018-05-25T13:14:00.848Z,24.16
2018-05-25T13:16:28.944Z,24.15
2018-05-25T13:18:57.112Z,24.14
2018-05-25T13:21:25.233Z,24.26
2018-05-25T13:23:53.346Z,24.30
2018-05-25T13:26:24.818Z,24.15
2018-05-25T13:28:52.953Z,24.03
2018-05-25T13:31:21.054Z,24.07
2018-05-25T13:33:49.182Z,24.06
2018-05-25T13:36:17.336Z,23.97
2018-05-25T13:38:45.496Z,24.04
2018-05-25T13:41:13.647Z,24.10
2018-05-25T13:43:41.796Z,24.14
2018-05-25T13:46:09.917Z,24.12
2018-05-25T13:48:38.063Z,24.22
2018-05-25T13:51:06.176Z,24.32
2018-05-25T13:53:34.283Z,24.36
2018-05-25T13:56:02.413Z,24.48
2018-05-25T13:58:30.537Z,24.62
2018-05-25T14:00:58.659Z,24.65
2018-05-25T14:03:26.771Z,24.77
2018-05-25T14:05:54.910Z,24.89
2018-05-25T14:08:23.003Z,24.82
2018-05-25T14:10:51.159Z,24.80
2018-05-25T14:13:19.258Z,24.89
2018-05-25T14:15:47.408Z,24.82
2018-05-25T14:18:15.546Z,24.71
2018-05-25T14:20:43.685Z,24.59
2018-05-25T14:23:11.886Z,24.48
2018-05-25T14:25:40.026Z,24.36
2018-05-25T14:28:08.142Z,24.24
2018-05-25T14:30:36.269Z,24.20
2018-05-25T14:33:04.405Z,24.21
2018-05-25T14:35:32.552Z,24.22
2018-05-25T14:38:00.698Z,24.26
2018-05-25T14:40:28.810Z,24.44
2018-05-25T14:42:56.991Z,24.51
2018-05-25T14:45:28.365Z,24.60
2018-05-25T14:47:56.493Z,24.62
2018-05-25T14:50:24.635Z,24.64
2018-05-25T14:52:52.760Z,24.52
2018-05-25T14:55:20.896Z,24.43
2018-05-25T14:57:49.115Z,24.37
2018-05-25T15:00:17.237Z,24.26
2018-05-25T15:02:45.369Z,24.22
2018-05-25T15:05:13.546Z,24.18
2018-05-25T15:07:41.689Z,24.05
2018-05-25T15:10:09.840Z,24.02
2018-05-25T15:12:37.993Z,23.99
2018-05-25T15:15:06.129Z,23.91
2018-05-25T15:17:34.273Z,23.97
2018-05-25T15:20:02.378Z,24.06
2018-05-25T15:22:30.505Z,24.04
2018-05-25T15:24:58.633Z,24.07
2018-05-25T15:27:26.761Z,24.04
2018-05-25T15:29:54.901Z,23.99
2018-05-25T15:32:23.049Z,23.91
2018-05-25T15:34:51.179Z,23.96
2018-05-25T15:37:19.352Z,23.98
2018-05-25T15:39:47.488Z,23.97
2018-05-25T15:42:15.608Z,23.93
2018-05-25T15:44:43.726Z,23.92
2018-05-25T15:47:11.862Z,23.81
2018-05-25T15:49:40.006Z,23.80
2018-05-25T15:52:08.119Z,23.78
2018-05-25T15:54:36.264Z,23.72
2018-05-25T15:57:04.404Z,23.68
2018-05-25T15:59:32.544Z,23.64
2018-05-25T16:02:01.119Z,23.60
2018-05-25T16:04:29.255Z,23.57
2018-05-25T16:06:57.399Z,23.57
2018-05-25T16:09:25.531Z,23.56
2018-05-25T16:11:53.661Z,23.60
2018-05-25T16:14:21.869Z,23.62
2018-05-25T16:16:49.961Z,23.69
2018-05-25T16:19:18.096Z,23.85
2018-05-25T16:21:46.223Z,24.01
2018-05-25T16:24:14.388Z,24.14
2018-05-25T16:26:42.505Z,24.27
2018-05-25T16:29:10.641Z,24.34
2018-05-25T16:31:38.781Z,24.39
2018-05-25T16:34:06.930Z,24.50
2018-05-25T16:36:35.007Z,24.53
2018-05-25T16:39:03.144Z,24.51
2018-05-25T16:41:31.274Z,24.48
2018-05-25T16:43:59.392Z,24.58
2018-05-25T16:46:27.549Z,24.56
2018-05-25T16:48:55.699Z,24.45
2018-05-25T16:51:23.831Z,24.43
2018-05-25T16:53:51.994Z,24.41
2018-05-25T16:56:20.104Z,24.45
2018-05-25T16:58:48.222Z,24.40
2018-05-25T17:01:16.370Z,24.37
2018-05-25T17:03:44.495Z,24.35
2018-05-25T17:06:12.622Z,24.32
2018-05-25T17:08:40.749Z,24.33
2018-05-25T17:11:08.894Z,24.29
2018-05-25T17:13:37.023Z,24.27
2018-05-25T17:16:05.169Z,24.32
2018-05-25T17:18:33.299Z,24.28
2018-05-25T17:21:01.475Z,24.31
2018-05-25T17:23:29.577Z,24.31
2018-05-25T17:25:57.718Z,24.26
2018-05-25T17:28:29.364Z,24.15
2018-05-25T17:30:57.529Z,24.03
2018-05-25T17:33:25.684Z,23.95
2018-05-25T17:35:53.806Z,24.04
2018-05-25T17:38:25.671Z,23.96
2018-05-25T17:40:53.811Z,23.91
2018-05-25T17:43:28.335Z,23.87
2018-05-25T17:45:56.436Z,23.87
2018-05-25T17:48:24.538Z,23.87
2018-05-25T17:50:52.689Z,23.86
2018-05-25T17:53:20.805Z,23.79
2018-05-25T17:55:48.944Z,23.73
2018-05-25T17:58:17.094Z,23.69
2018-05-25T18:00:45.223Z,23.62
2018-05-25T18:03:13.418Z,23.59
2018-05-25T18:05:41.501Z,23.52
2018-05-25T18:08:09.610Z,23.47
2018-05-25T18:10:37.718Z,23.42
2018-05-25T18:13:05.871Z,23.39
2018-05-25T18:15:37.360Z,23.36
2018-05-25T18:18:05.498Z,23.33
2018-05-25T18:20:33.618Z,23.29
2018-05-25T18:23:01.850Z,23.25
2018-05-25T18:25:29.947Z,23.22
2018-05-25T18:27:58.091Z,23.17
2018-05-25T18:30:26.187Z,23.13
2018-05-25T18:32:54.294Z,23.09
2018-05-25T18:35:22.431Z,23.08
2018-05-25T18:37:50.563Z,23.07
2018-05-25T18:40:18.705Z,23.03
2018-05-25T18:42:46.875Z,22.99
2018-05-25T18:45:15.042Z,22.92
2018-05-25T18:47:43.162Z,22.87
2018-05-25T18:50:11.280Z,22.85
2018-05-25T18:52:39.379Z,22.84
2018-05-25T18:55:07.482Z,22.85
2018-05-25T18:57:35.613Z,22.82
2018-05-25T19:00:03.735Z,22.77
2018-05-25T19:02:32.166Z,22.74
2018-05-25T19:05:00.309Z,22.70
2018-05-25T19:07:28.447Z,22.66
2018-05-25T19:09:56.547Z,22.63
2018-05-25T19:12:24.717Z,22.60
2018-05-25T19:14:52.771Z,22.57
2018-05-25T19:17:20.912Z,22.52
2018-05-25T19:19:49.085Z,22.49
2018-05-25T19:22:17.184Z,22.47
2018-05-25T19:24:45.320Z,22.44
2018-05-25T19:27:13.454Z,22.38
2018-05-25T19:29:41.567Z,22.39
2018-05-25T19:32:09.674Z,22.37
2018-05-25T19:34:37.809Z,22.32
2018-05-25T19:37:05.912Z,22.29
2018-05-25T19:39:34.025Z,22.27
2018-05-25T19:42:02.150Z,22.25
2018-05-25T19:44:30.298Z,22.22
2018-05-25T19:47:02.036Z,22.20
2018-05-25T19:49:30.169Z,22.17
2018-05-25T19:51:58.293Z,22.17
2018-05-25T19:54:26.405Z,22.17
2018-05-25T19:56:54.536Z,22.20
2018-05-25T19:59:22.636Z,22.18
2018-05-25T20:01:50.734Z,22.14
2018-05-25T20:04:18.878Z,22.12
2018-05-25T20:06:47.011Z,22.13
2018-05-25T20:09:15.132Z,22.12
2018-05-25T20:11:43.257Z,22.10
2018-05-25T20:14:11.402Z,22.09
2018-05-25T20:16:39.518Z,22.07
2018-05-25T20:19:07.641Z,22.09
2018-05-25T20:21:35.886Z,22.05
2018-05-25T20:24:04.010Z,22.00
2018-05-25T20:26:32.138Z,21.96
2018-05-25T20:29:00.250Z,21.91
2018-05-25T20:31:31.558Z,21.88
2018-05-25T20:33:59.711Z,21.85
2018-05-25T20:36:27.846Z,21.82
2018-05-25T20:38:55.956Z,21.81
2018-05-25T20:41:24.104Z,21.80
2018-05-25T20:43:52.224Z,21.75
2018-05-25T20:46:20.348Z,21.74
2018-05-25T20:48:48.484Z,21.70
2018-05-25T20:51:16.620Z,21.66
2018-05-25T20:53:44.742Z,21.65
2018-05-25T20:56:12.891Z,21.64
2018-05-25T20:58:41.018Z,21.63
2018-05-25T21:01:09.183Z,21.61
2018-05-25T21:03:37.495Z,21.60
2018-05-25T21:06:05.621Z,21.58
2018-05-25T21:08:33.737Z,21.54
2018-05-25T21:11:01.889Z,21.52
2018-05-25T21:13:29.997Z,21.48
2018-05-25T21:15:58.117Z,21.46
2018-05-25T21:18:26.413Z,21.44
2018-05-25T21:20:54.532Z,21.42
2018-05-25T21:23:22.675Z,21.41
2018-05-25T21:25:50.806Z,21.35
2018-05-25T21:28:19.107Z,21.33
2018-05-25T21:30:47.225Z,21.29
2018-05-25T21:33:15.357Z,21.27
2018-05-25T21:35:43.477Z,21.25
2018-05-25T21:38:11.616Z,21.25
2018-05-25T21:40:39.743Z,21.20
2018-05-25T21:43:07.851Z,21.19
2018-05-25T21:45:35.985Z,21.20
2018-05-25T21:48:04.125Z,21.16
2018-05-25T21:50:32.266Z,21.15
2018-05-25T21:53:00.374Z,21.13
2018-05-25T21:55:28.527Z,21.13
2018-05-25T21:58:00.350Z,21.13
2018-05-25T22:00:30.162Z,21.11
2018-05-25T22:02:58.315Z,21.10
2018-05-25T22:05:26.454Z,21.08
2018-05-25T22:07:54.786Z,21.07
2018-05-25T22:10:22.895Z,21.06
2018-05-25T22:12:51.011Z,21.02
2018-05-25T22:15:19.161Z,21.03
2018-05-25T22:17:47.285Z,21.05
2018-05-25T22:20:15.414Z,21.01
2018-05-25T22:22:43.655Z,21.00
2018-05-25T22:25:11.879Z,20.99
2018-05-25T22:27:40.050Z,20.96
2018-05-25T22:30:08.189Z,20.96
2018-05-25T22:32:36.447Z,20.95
2018-05-25T22:35:04.444Z,20.91
2018-05-25T22:37:32.687Z,20.88
2018-05-25T22:40:00.841Z,20.86
2018-05-25T22:42:40.846Z,20.83
2018-05-25T22:45:20.713Z,20.80
2018-05-25T22:48:00.694Z,20.79
2018-05-25T22:50:40.674Z,20.75
2018-05-25T22:53:13.818Z,20.76
2018-05-25T22:55:42.068Z,20.72
2018-05-25T22:58:10.207Z,20.72
2018-05-25T23:00:38.344Z,20.73
2018-05-25T23:03:06.450Z,20.72
2018-05-25T23:05:34.567Z,20.69
2018-05-25T23:08:02.798Z,20.61
2018-05-25T23:10:30.967Z,20.65
2018-05-25T23:12:59.169Z,20.65
2018-05-25T23:15:27.403Z,20.64
2018-05-25T23:17:55.638Z,20.55
2018-05-25T23:20:23.889Z,20.49
2018-05-25T23:22:52.299Z,20.48
2018-05-25T23:25:20.406Z,20.43
2018-05-25T23:27:48.546Z,20.45
2018-05-25T23:30:16.703Z,20.38
2018-05-25T23:32:44.848Z,20.39
2018-05-25T23:35:12.969Z,20.41
2018-05-25T23:37:41.127Z,20.41
2018-05-25T23:40:09.231Z,20.37
2018-05-25T23:42:37.385Z,20.35
2018-05-25T23:45:05.707Z,20.34
2018-05-25T23:47:33.839Z,20.30
2018-05-25T23:50:01.970Z,20.28
2018-05-25T23:52:30.121Z,20.29
2018-05-25T23:54:58.287Z,20.25
2018-05-25T23:57:26.390Z,20.27
2018-05-25T23:59:54.544Z,20.24
